sensor_id;sensor_type;location;lat;lon;timestamp;temperature;humidity
44461;DHT22;30162;53.642;10.640;2023-05-10T00:00:13;18.50;55.00
44461;DHT22;30162;53.642;10.640;2023-05-10T00:02:38;18.50;55.30
44461;DHT22;30162;53.642;10.640;2023-05-10T00:05:05;18.00;55.60
44461;DHT22;30162;53.642;10.640;2023-05-10T00:07:31;18.00;55.80
44461;DHT22;30162;53.642;10.640;2023-05-10T00:09:56;18.30;55.80
44461;DHT22;30162;53.642;10.640;2023-05-10T00:12:22;18.10;55.40
44461;DHT22;30162;53.642;10.640;2023-05-10T00:14:47;18.10;55.60
44461;DHT22;30162;53.642;10.640;2023-05-10T00:17:14;18.30;55.40
44461;DHT22;30162;53.642;10.640;2023-05-10T00:19:39;18.30;55.40
44461;DHT22;30162;53.642;10.640;2023-05-10T00:22:05;18.30;55.30
44461;DHT22;30162;53.642;10.640;2023-05-10T00:24:31;18.40;55.10
44461;DHT22;30162;53.642;10.640;2023-05-10T00:26:56;17.90;56.10
44461;DHT22;30162;53.642;10.640;2023-05-10T00:29:22;17.70;56.30
44461;DHT22;30162;53.642;10.640;2023-05-10T00:31:47;17.90;56.30
44461;DHT22;30162;53.642;10.640;2023-05-10T00:34:13;18.10;55.90
44461;DHT22;30162;53.642;10.640;2023-05-10T00:36:38;18.20;55.70
44461;DHT22;30162;53.642;10.640;2023-05-10T00:39:04;18.20;55.80
44461;DHT22;30162;53.642;10.640;2023-05-10T00:41:30;18.10;56.00
44461;DHT22;30162;53.642;10.640;2023-05-10T00:43:58;18.20;55.90
44461;DHT22;30162;53.642;10.640;2023-05-10T00:46:24;18.40;55.60
44461;DHT22;30162;53.642;10.640;2023-05-10T00:48:51;18.00;55.80
44461;DHT22;30162;53.642;10.640;2023-05-10T00:51:16;17.70;56.60
44461;DHT22;30162;53.642;10.640;2023-05-10T00:53:44;17.80;56.30
44461;DHT22;30162;53.642;10.640;2023-05-10T00:56:10;17.60;56.70
44461;DHT22;30162;53.642;10.640;2023-05-10T00:58:36;17.70;56.60
44461;DHT22;30162;53.642;10.640;2023-05-10T01:01:02;17.30;57.20
44461;DHT22;30162;53.642;10.640;2023-05-10T01:03:28;17.50;57.30
44461;DHT22;30162;53.642;10.640;2023-05-10T01:05:54;17.70;57.00
44461;DHT22;30162;53.642;10.640;2023-05-10T01:08:20;17.60;57.30
44461;DHT22;30162;53.642;10.640;2023-05-10T01:10:46;17.80;57.10
44461;DHT22;30162;53.642;10.640;2023-05-10T01:13:23;17.80;56.70
44461;DHT22;30162;53.642;10.640;2023-05-10T01:15:52;17.90;56.70
44461;DHT22;30162;53.642;10.640;2023-05-10T01:18:20;17.60;57.20
44461;DHT22;30162;53.642;10.640;2023-05-10T01:20:49;17.50;57.60
44461;DHT22;30162;53.642;10.640;2023-05-10T01:34:35;17.50;57.70
44461;DHT22;30162;53.642;10.640;2023-05-10T01:37:10;17.40;57.60
44461;DHT22;30162;53.642;10.640;2023-05-10T01:39:57;17.20;58.30
44461;DHT22;30162;53.642;10.640;2023-05-10T01:42:28;17.50;58.20
44461;DHT22;30162;53.642;10.640;2023-05-10T01:45:13;17.40;58.10
44461;DHT22;30162;53.642;10.640;2023-05-10T01:47:44;17.30;58.00
44461;DHT22;30162;53.642;10.640;2023-05-10T01:50:18;17.50;58.20
44461;DHT22;30162;53.642;10.640;2023-05-10T01:52:50;17.20;58.30
44461;DHT22;30162;53.642;10.640;2023-05-10T01:55:18;17.40;58.40
44461;DHT22;30162;53.642;10.640;2023-05-10T01:57:46;17.50;58.10
44461;DHT22;30162;53.642;10.640;2023-05-10T02:00:14;17.60;57.70
44461;DHT22;30162;53.642;10.640;2023-05-10T02:02:45;17.20;58.30
44461;DHT22;30162;53.642;10.640;2023-05-10T02:05:12;17.20;58.80
44461;DHT22;30162;53.642;10.640;2023-05-10T02:07:39;17.20;58.70
44461;DHT22;30162;53.642;10.640;2023-05-10T02:10:07;17.10;58.70
44461;DHT22;30162;53.642;10.640;2023-05-10T02:12:39;17.00;58.90
44461;DHT22;30162;53.642;10.640;2023-05-10T02:15:07;17.10;58.70
44461;DHT22;30162;53.642;10.640;2023-05-10T02:17:35;16.80;59.50
44461;DHT22;30162;53.642;10.640;2023-05-10T02:20:03;17.10;59.00
44461;DHT22;30162;53.642;10.640;2023-05-10T02:22:30;17.20;58.70
44461;DHT22;30162;53.642;10.640;2023-05-10T02:24:57;17.20;58.80
44461;DHT22;30162;53.642;10.640;2023-05-10T02:27:24;17.30;58.80
44461;DHT22;30162;53.642;10.640;2023-05-10T02:29:51;17.40;58.70
44461;DHT22;30162;53.642;10.640;2023-05-10T02:32:17;17.30;58.60
44461;DHT22;30162;53.642;10.640;2023-05-10T02:34:44;17.20;58.70
44461;DHT22;30162;53.642;10.640;2023-05-10T02:37:14;17.30;59.50
44461;DHT22;30162;53.642;10.640;2023-05-10T02:39:41;17.40;58.70
44461;DHT22;30162;53.642;10.640;2023-05-10T02:42:16;17.30;59.00
44461;DHT22;30162;53.642;10.640;2023-05-10T02:44:43;17.30;59.10
44461;DHT22;30162;53.642;10.640;2023-05-10T02:47:10;17.00;59.40
44461;DHT22;30162;53.642;10.640;2023-05-10T02:49:36;17.00;59.40
44461;DHT22;30162;53.642;10.640;2023-05-10T02:52:05;16.80;59.70
44461;DHT22;30162;53.642;10.640;2023-05-10T02:54:33;16.90;59.90
44461;DHT22;30162;53.642;10.640;2023-05-10T02:57:04;17.00;59.60
44461;DHT22;30162;53.642;10.640;2023-05-10T02:59:30;16.60;60.10
44461;DHT22;30162;53.642;10.640;2023-05-10T03:01:58;16.60;60.30
44461;DHT22;30162;53.642;10.640;2023-05-10T03:04:25;16.60;60.30
44461;DHT22;30162;53.642;10.640;2023-05-10T03:06:51;16.40;60.60
44461;DHT22;30162;53.642;10.640;2023-05-10T03:09:16;16.10;61.60
44461;DHT22;30162;53.642;10.640;2023-05-10T03:12:07;16.50;60.80
44461;DHT22;30162;53.642;10.640;2023-05-10T03:14:48;16.60;60.50
44461;DHT22;30162;53.642;10.640;2023-05-10T03:17:47;16.40;61.00
44461;DHT22;30162;53.642;10.640;2023-05-10T03:20:44;16.50;60.90
44461;DHT22;30162;53.642;10.640;2023-05-10T03:23:19;16.80;60.70
44461;DHT22;30162;53.642;10.640;2023-05-10T03:25:48;16.50;60.80
44461;DHT22;30162;53.642;10.640;2023-05-10T03:28:15;16.60;60.50
44461;DHT22;30162;53.642;10.640;2023-05-10T03:30:43;16.50;60.80
44461;DHT22;30162;53.642;10.640;2023-05-10T03:33:08;16.50;60.80
44461;DHT22;30162;53.642;10.640;2023-05-10T03:35:34;16.70;60.60
44461;DHT22;30162;53.642;10.640;2023-05-10T03:38:00;16.80;60.70
44461;DHT22;30162;53.642;10.640;2023-05-10T03:40:26;16.50;60.70
44461;DHT22;30162;53.642;10.640;2023-05-10T03:42:54;16.60;60.90
44461;DHT22;30162;53.642;10.640;2023-05-10T03:45:20;16.70;61.10
44461;DHT22;30162;53.642;10.640;2023-05-10T03:47:45;16.70;60.80
44461;DHT22;30162;53.642;10.640;2023-05-10T03:50:11;16.60;61.10
44461;DHT22;30162;53.642;10.640;2023-05-10T03:52:37;16.60;60.60
44461;DHT22;30162;53.642;10.640;2023-05-10T03:55:05;16.80;60.80
44461;DHT22;30162;53.642;10.640;2023-05-10T03:57:31;16.60;60.90
44461;DHT22;30162;53.642;10.640;2023-05-10T03:59:56;16.60;61.10
44461;DHT22;30162;53.642;10.640;2023-05-10T04:02:22;16.60;61.00
44461;DHT22;30162;53.642;10.640;2023-05-10T04:04:47;16.40;61.40
44461;DHT22;30162;53.642;10.640;2023-05-10T04:07:13;16.40;61.50
44461;DHT22;30162;53.642;10.640;2023-05-10T04:09:39;16.50;61.20
44461;DHT22;30162;53.642;10.640;2023-05-10T04:12:05;16.40;61.80
44461;DHT22;30162;53.642;10.640;2023-05-10T04:14:31;16.20;61.70
44461;DHT22;30162;53.642;10.640;2023-05-10T04:16:56;16.10;62.20
44461;DHT22;30162;53.642;10.640;2023-05-10T04:19:22;16.50;61.90
44461;DHT22;30162;53.642;10.640;2023-05-10T04:21:47;16.80;61.30
44461;DHT22;30162;53.642;10.640;2023-05-10T04:24:13;17.00;60.80
44461;DHT22;30162;53.642;10.640;2023-05-10T04:26:38;16.70;60.70
44461;DHT22;30162;53.642;10.640;2023-05-10T04:29:04;16.70;61.20
44461;DHT22;30162;53.642;10.640;2023-05-10T04:31:30;16.80;61.80
44461;DHT22;30162;53.642;10.640;2023-05-10T04:33:55;16.80;61.60
44461;DHT22;30162;53.642;10.640;2023-05-10T04:36:21;17.00;61.30
44461;DHT22;30162;53.642;10.640;2023-05-10T04:38:46;17.10;61.10
44461;DHT22;30162;53.642;10.640;2023-05-10T04:41:12;17.10;60.90
44461;DHT22;30162;53.642;10.640;2023-05-10T04:43:38;17.20;60.80
44461;DHT22;30162;53.642;10.640;2023-05-10T04:46:05;17.10;61.10
44461;DHT22;30162;53.642;10.640;2023-05-10T04:48:30;16.90;61.20
44461;DHT22;30162;53.642;10.640;2023-05-10T04:50:56;16.70;61.60
44461;DHT22;30162;53.642;10.640;2023-05-10T04:53:21;16.80;62.00
44461;DHT22;30162;53.642;10.640;2023-05-10T04:55:47;17.10;61.30
44461;DHT22;30162;53.642;10.640;2023-05-10T04:58:13;17.20;61.20
44461;DHT22;30162;53.642;10.640;2023-05-10T05:00:39;16.80;61.10
44461;DHT22;30162;53.642;10.640;2023-05-10T05:03:04;16.90;61.40
44461;DHT22;30162;53.642;10.640;2023-05-10T05:05:30;17.00;61.40
44461;DHT22;30162;53.642;10.640;2023-05-10T05:07:56;17.00;61.80
44461;DHT22;30162;53.642;10.640;2023-05-10T05:10:21;17.00;61.30
44461;DHT22;30162;53.642;10.640;2023-05-10T05:12:47;17.30;60.80
44461;DHT22;30162;53.642;10.640;2023-05-10T05:15:12;17.30;61.20
44461;DHT22;30162;53.642;10.640;2023-05-10T05:17:38;17.20;61.10
44461;DHT22;30162;53.642;10.640;2023-05-10T05:20:04;17.00;61.30
44461;DHT22;30162;53.642;10.640;2023-05-10T05:22:30;17.10;61.60
44461;DHT22;30162;53.642;10.640;2023-05-10T05:24:56;17.10;61.20
44461;DHT22;30162;53.642;10.640;2023-05-10T05:27:22;17.30;61.10
44461;DHT22;30162;53.642;10.640;2023-05-10T05:29:50;17.50;61.50
44461;DHT22;30162;53.642;10.640;2023-05-10T05:32:16;17.60;60.90
44461;DHT22;30162;53.642;10.640;2023-05-10T05:34:43;17.70;60.30
44461;DHT22;30162;53.642;10.640;2023-05-10T05:37:13;17.60;60.90
44461;DHT22;30162;53.642;10.640;2023-05-10T05:39:39;17.40;61.20
44461;DHT22;30162;53.642;10.640;2023-05-10T05:42:04;17.90;61.10
44461;DHT22;30162;53.642;10.640;2023-05-10T05:44:30;18.40;60.20
44461;DHT22;30162;53.642;10.640;2023-05-10T05:46:55;18.80;59.30
44461;DHT22;30162;53.642;10.640;2023-05-10T05:49:21;19.00;58.80
44461;DHT22;30162;53.642;10.640;2023-05-10T05:51:47;18.90;59.10
44461;DHT22;30162;53.642;10.640;2023-05-10T05:54:14;18.60;59.40
44461;DHT22;30162;53.642;10.640;2023-05-10T05:56:40;18.80;59.30
44461;DHT22;30162;53.642;10.640;2023-05-10T05:59:05;18.40;59.50
44461;DHT22;30162;53.642;10.640;2023-05-10T06:01:31;18.60;59.40
44461;DHT22;30162;53.642;10.640;2023-05-10T06:03:56;18.60;59.10
44461;DHT22;30162;53.642;10.640;2023-05-10T06:06:22;18.50;59.30
44461;DHT22;30162;53.642;10.640;2023-05-10T06:08:47;18.80;59.60
44461;DHT22;30162;53.642;10.640;2023-05-10T06:11:13;19.20;58.90
44461;DHT22;30162;53.642;10.640;2023-05-10T06:13:38;19.60;57.80
44461;DHT22;30162;53.642;10.640;2023-05-10T06:16:04;19.90;58.50
44461;DHT22;30162;53.642;10.640;2023-05-10T06:18:30;20.10;57.40
44461;DHT22;30162;53.642;10.640;2023-05-10T06:20:55;19.70;57.70
44461;DHT22;30162;53.642;10.640;2023-05-10T06:23:21;19.50;58.10
44461;DHT22;30162;53.642;10.640;2023-05-10T06:25:47;19.40;57.70
44461;DHT22;30162;53.642;10.640;2023-05-10T06:28:13;19.10;59.10
44461;DHT22;30162;53.642;10.640;2023-05-10T06:30:38;19.30;58.70
44461;DHT22;30162;53.642;10.640;2023-05-10T06:33:04;19.60;58.30
44461;DHT22;30162;53.642;10.640;2023-05-10T06:35:30;20.00;58.20
44461;DHT22;30162;53.642;10.640;2023-05-10T06:37:56;19.70;58.20
44461;DHT22;30162;53.642;10.640;2023-05-10T06:40:22;19.60;57.50
44461;DHT22;30162;53.642;10.640;2023-05-10T06:42:48;19.40;57.40
44461;DHT22;30162;53.642;10.640;2023-05-10T06:45:14;19.80;58.40
44461;DHT22;30162;53.642;10.640;2023-05-10T06:47:40;20.00;58.80
44461;DHT22;30162;53.642;10.640;2023-05-10T06:50:07;20.10;58.10
44461;DHT22;30162;53.642;10.640;2023-05-10T06:52:33;20.30;56.60
44461;DHT22;30162;53.642;10.640;2023-05-10T06:54:59;20.00;57.50
44461;DHT22;30162;53.642;10.640;2023-05-10T06:57:25;19.20;57.90
44461;DHT22;30162;53.642;10.640;2023-05-10T06:59:51;19.40;58.20
44461;DHT22;30162;53.642;10.640;2023-05-10T07:02:17;19.70;58.50
44461;DHT22;30162;53.642;10.640;2023-05-10T07:04:43;20.40;58.20
44461;DHT22;30162;53.642;10.640;2023-05-10T07:07:08;21.10;57.20
44461;DHT22;30162;53.642;10.640;2023-05-10T07:09:34;21.70;56.40
44461;DHT22;30162;53.642;10.640;2023-05-10T07:11:59;21.20;55.50
44461;DHT22;30162;53.642;10.640;2023-05-10T07:14:25;21.30;56.40
44461;DHT22;30162;53.642;10.640;2023-05-10T07:16:50;22.00;55.70
44461;DHT22;30162;53.642;10.640;2023-05-10T07:19:16;22.10;54.30
44461;DHT22;30162;53.642;10.640;2023-05-10T07:21:41;22.10;55.70
44461;DHT22;30162;53.642;10.640;2023-05-10T07:24:08;21.90;55.70
44461;DHT22;30162;53.642;10.640;2023-05-10T07:26:34;22.00;55.20
44461;DHT22;30162;53.642;10.640;2023-05-10T07:28:59;22.00;55.10
44461;DHT22;30162;53.642;10.640;2023-05-10T07:31:25;22.00;55.20
44461;DHT22;30162;53.642;10.640;2023-05-10T07:33:50;21.90;55.00
44461;DHT22;30162;53.642;10.640;2023-05-10T07:36:16;21.90;54.50
44461;DHT22;30162;53.642;10.640;2023-05-10T07:38:42;21.60;55.70
44461;DHT22;30162;53.642;10.640;2023-05-10T07:41:07;21.60;55.40
44461;DHT22;30162;53.642;10.640;2023-05-10T07:43:33;21.80;55.60
44461;DHT22;30162;53.642;10.640;2023-05-10T07:45:58;22.00;54.90
44461;DHT22;30162;53.642;10.640;2023-05-10T07:48:25;22.30;55.90
44461;DHT22;30162;53.642;10.640;2023-05-10T07:50:51;22.70;55.60
44461;DHT22;30162;53.642;10.640;2023-05-10T07:53:16;23.00;55.40
44461;DHT22;30162;53.642;10.640;2023-05-10T07:55:42;22.60;54.10
44461;DHT22;30162;53.642;10.640;2023-05-10T07:58:08;23.00;56.80
44461;DHT22;30162;53.642;10.640;2023-05-10T08:00:33;23.80;53.50
44461;DHT22;30162;53.642;10.640;2023-05-10T08:02:59;23.10;54.60
44461;DHT22;30162;53.642;10.640;2023-05-10T08:05:25;23.00;53.80
44461;DHT22;30162;53.642;10.640;2023-05-10T08:07:50;23.40;53.30
44461;DHT22;30162;53.642;10.640;2023-05-10T08:10:16;23.20;53.50
44461;DHT22;30162;53.642;10.640;2023-05-10T08:12:42;22.70;53.10
44461;DHT22;30162;53.642;10.640;2023-05-10T08:15:08;22.60;53.40
44461;DHT22;30162;53.642;10.640;2023-05-10T08:17:34;22.20;54.60
44461;DHT22;30162;53.642;10.640;2023-05-10T08:19:59;22.00;55.20
44461;DHT22;30162;53.642;10.640;2023-05-10T08:22:25;22.40;55.70
44461;DHT22;30162;53.642;10.640;2023-05-10T08:24:51;22.70;54.60
44461;DHT22;30162;53.642;10.640;2023-05-10T08:27:16;22.70;54.90
44461;DHT22;30162;53.642;10.640;2023-05-10T08:29:42;23.60;55.10
44461;DHT22;30162;53.642;10.640;2023-05-10T08:32:07;23.70;53.20
44461;DHT22;30162;53.642;10.640;2023-05-10T08:34:33;24.00;54.50
44461;DHT22;30162;53.642;10.640;2023-05-10T08:36:58;24.10;53.00
44461;DHT22;30162;53.642;10.640;2023-05-10T08:39:24;24.50;52.90
44461;DHT22;30162;53.642;10.640;2023-05-10T08:41:51;24.80;53.10
44461;DHT22;30162;53.642;10.640;2023-05-10T08:44:17;25.40;51.90
44461;DHT22;30162;53.642;10.640;2023-05-10T08:46:46;25.70;51.40
44461;DHT22;30162;53.642;10.640;2023-05-10T08:49:13;25.30;51.50
44461;DHT22;30162;53.642;10.640;2023-05-10T08:51:45;25.60;51.70
44461;DHT22;30162;53.642;10.640;2023-05-10T08:54:12;25.60;52.40
44461;DHT22;30162;53.642;10.640;2023-05-10T08:56:38;24.90;50.50
44461;DHT22;30162;53.642;10.640;2023-05-10T08:59:04;24.70;52.30
44461;DHT22;30162;53.642;10.640;2023-05-10T09:01:31;24.80;51.70
44461;DHT22;30162;53.642;10.640;2023-05-10T09:03:58;24.60;53.30
44461;DHT22;30162;53.642;10.640;2023-05-10T09:06:24;24.80;53.30
44461;DHT22;30162;53.642;10.640;2023-05-10T09:08:49;24.90;53.20
44461;DHT22;30162;53.642;10.640;2023-05-10T09:11:16;24.60;52.30
44461;DHT22;30162;53.642;10.640;2023-05-10T09:13:42;24.70;52.60
44461;DHT22;30162;53.642;10.640;2023-05-10T09:16:09;25.00;52.50
44461;DHT22;30162;53.642;10.640;2023-05-10T09:18:35;24.60;53.50
44461;DHT22;30162;53.642;10.640;2023-05-10T09:21:01;25.30;53.30
44461;DHT22;30162;53.642;10.640;2023-05-10T09:23:27;25.50;52.20
44461;DHT22;30162;53.642;10.640;2023-05-10T09:26:06;25.40;52.40
44461;DHT22;30162;53.642;10.640;2023-05-10T09:28:54;24.80;52.90
44461;DHT22;30162;53.642;10.640;2023-05-10T09:31:19;24.70;52.40
44461;DHT22;30162;53.642;10.640;2023-05-10T09:33:49;24.80;53.30
44461;DHT22;30162;53.642;10.640;2023-05-10T09:36:15;25.60;53.60
44461;DHT22;30162;53.642;10.640;2023-05-10T09:38:51;26.20;53.60
44461;DHT22;30162;53.642;10.640;2023-05-10T09:41:24;26.00;52.40
44461;DHT22;30162;53.642;10.640;2023-05-10T09:43:55;26.00;52.10
44461;DHT22;30162;53.642;10.640;2023-05-10T09:46:21;26.40;53.10
44461;DHT22;30162;53.642;10.640;2023-05-10T09:48:48;26.70;51.80
44461;DHT22;30162;53.642;10.640;2023-05-10T09:51:21;26.60;52.20
44461;DHT22;30162;53.642;10.640;2023-05-10T09:53:47;26.20;52.50
44461;DHT22;30162;53.642;10.640;2023-05-10T09:56:12;26.00;52.90
44461;DHT22;30162;53.642;10.640;2023-05-10T09:58:38;25.40;52.80
44461;DHT22;30162;53.642;10.640;2023-05-10T10:01:04;25.30;53.40
44461;DHT22;30162;53.642;10.640;2023-05-10T10:03:30;25.00;54.40
44461;DHT22;30162;53.642;10.640;2023-05-10T10:05:55;24.80;54.00
44461;DHT22;30162;53.642;10.640;2023-05-10T10:08:21;24.90;54.90
44461;DHT22;30162;53.642;10.640;2023-05-10T10:10:47;25.00;54.70
44461;DHT22;30162;53.642;10.640;2023-05-10T10:13:13;24.50;55.40
44461;DHT22;30162;53.642;10.640;2023-05-10T10:15:39;23.70;54.50
44461;DHT22;30162;53.642;10.640;2023-05-10T10:18:05;23.10;56.50
44461;DHT22;30162;53.642;10.640;2023-05-10T10:20:31;23.30;56.40
44461;DHT22;30162;53.642;10.640;2023-05-10T10:22:56;23.30;56.70
44461;DHT22;30162;53.642;10.640;2023-05-10T10:25:22;23.80;56.70
44461;DHT22;30162;53.642;10.640;2023-05-10T10:30:27;23.90;57.20
44461;DHT22;30162;53.642;10.640;2023-05-10T10:35:33;24.10;56.50
44461;DHT22;30162;53.642;10.640;2023-05-10T10:37:59;24.10;55.30
44461;DHT22;30162;53.642;10.640;2023-05-10T10:40:30;23.90;56.40
44461;DHT22;30162;53.642;10.640;2023-05-10T10:42:57;23.50;55.90
44461;DHT22;30162;53.642;10.640;2023-05-10T10:45:24;23.50;56.70
44461;DHT22;30162;53.642;10.640;2023-05-10T10:48:23;23.70;57.10
44461;DHT22;30162;53.642;10.640;2023-05-10T10:50:56;23.80;57.20
44461;DHT22;30162;53.642;10.640;2023-05-10T10:53:22;23.50;56.80
44461;DHT22;30162;53.642;10.640;2023-05-10T10:55:48;22.60;58.80
44461;DHT22;30162;53.642;10.640;2023-05-10T10:58:29;22.80;58.60
44461;DHT22;30162;53.642;10.640;2023-05-10T11:01:17;23.00;58.90
44461;DHT22;30162;53.642;10.640;2023-05-10T11:06:40;23.50;57.80
44461;DHT22;30162;53.642;10.640;2023-05-10T11:09:09;23.50;57.80
44461;DHT22;30162;53.642;10.640;2023-05-10T11:11:35;23.60;57.80
44461;DHT22;30162;53.642;10.640;2023-05-10T11:14:06;23.70;57.80
44461;DHT22;30162;53.642;10.640;2023-05-10T11:16:44;23.40;57.90
44461;DHT22;30162;53.642;10.640;2023-05-10T11:19:11;23.10;58.00
44461;DHT22;30162;53.642;10.640;2023-05-10T11:24:29;23.30;57.60
44461;DHT22;30162;53.642;10.640;2023-05-10T11:26:55;23.60;57.40
44461;DHT22;30162;53.642;10.640;2023-05-10T11:29:21;23.60;56.80
44461;DHT22;30162;53.642;10.640;2023-05-10T11:31:48;23.60;57.30
44461;DHT22;30162;53.642;10.640;2023-05-10T11:34:30;24.00;57.60
44461;DHT22;30162;53.642;10.640;2023-05-10T11:36:57;24.10;57.70
44461;DHT22;30162;53.642;10.640;2023-05-10T11:39:27;24.30;58.10
44461;DHT22;30162;53.642;10.640;2023-05-10T11:41:53;24.00;57.50
44461;DHT22;30162;53.642;10.640;2023-05-10T11:44:19;23.80;58.90
44461;DHT22;30162;53.642;10.640;2023-05-10T11:46:44;23.70;61.00
44461;DHT22;30162;53.642;10.640;2023-05-10T11:49:10;23.90;61.30
44461;DHT22;30162;53.642;10.640;2023-05-10T11:51:36;24.00;62.30
44461;DHT22;30162;53.642;10.640;2023-05-10T11:54:09;24.00;61.60
44461;DHT22;30162;53.642;10.640;2023-05-10T11:56:36;23.80;61.60
44461;DHT22;30162;53.642;10.640;2023-05-10T11:59:02;23.60;61.90
44461;DHT22;30162;53.642;10.640;2023-05-10T12:01:29;23.50;62.10
44461;DHT22;30162;53.642;10.640;2023-05-10T12:03:56;23.60;63.00
44461;DHT22;30162;53.642;10.640;2023-05-10T12:06:32;23.40;62.80
44461;DHT22;30162;53.642;10.640;2023-05-10T12:09:06;23.30;63.30
44461;DHT22;30162;53.642;10.640;2023-05-10T12:11:36;23.20;64.10
44461;DHT22;30162;53.642;10.640;2023-05-10T12:14:04;23.30;64.80
44461;DHT22;30162;53.642;10.640;2023-05-10T12:16:30;23.40;64.60
44461;DHT22;30162;53.642;10.640;2023-05-10T12:18:58;23.20;64.80
44461;DHT22;30162;53.642;10.640;2023-05-10T12:21:24;22.80;65.30
44461;DHT22;30162;53.642;10.640;2023-05-10T12:23:52;22.50;65.50
44461;DHT22;30162;53.642;10.640;2023-05-10T12:26:18;22.40;66.40
44461;DHT22;30162;53.642;10.640;2023-05-10T12:28:46;22.10;67.20
44461;DHT22;30162;53.642;10.640;2023-05-10T12:31:12;22.20;68.70
44461;DHT22;30162;53.642;10.640;2023-05-10T12:33:38;22.30;68.30
44461;DHT22;30162;53.642;10.640;2023-05-10T12:36:05;22.10;68.10
44461;DHT22;30162;53.642;10.640;2023-05-10T12:38:41;21.90;68.60
44461;DHT22;30162;53.642;10.640;2023-05-10T12:41:14;21.90;69.40
44461;DHT22;30162;53.642;10.640;2023-05-10T12:43:40;21.70;70.30
44461;DHT22;30162;53.642;10.640;2023-05-10T12:46:10;21.90;70.40
44461;DHT22;30162;53.642;10.640;2023-05-10T12:48:37;21.90;70.90
44461;DHT22;30162;53.642;10.640;2023-05-10T12:51:04;22.20;71.10
44461;DHT22;30162;53.642;10.640;2023-05-10T12:53:30;22.10;71.30
44461;DHT22;30162;53.642;10.640;2023-05-10T12:55:56;22.30;70.40
44461;DHT22;30162;53.642;10.640;2023-05-10T12:58:22;22.40;69.90
44461;DHT22;30162;53.642;10.640;2023-05-10T13:00:47;22.20;70.10
44461;DHT22;30162;53.642;10.640;2023-05-10T13:03:13;21.40;71.00
44461;DHT22;30162;53.642;10.640;2023-05-10T13:05:39;21.40;71.70
44461;DHT22;30162;53.642;10.640;2023-05-10T13:08:05;21.50;72.20
44461;DHT22;30162;53.642;10.640;2023-05-10T13:10:31;21.80;71.40
44461;DHT22;30162;53.642;10.640;2023-05-10T13:12:57;21.80;70.70
44461;DHT22;30162;53.642;10.640;2023-05-10T13:15:23;21.90;70.90
44461;DHT22;30162;53.642;10.640;2023-05-10T13:17:49;22.10;71.00
44461;DHT22;30162;53.642;10.640;2023-05-10T13:20:15;21.90;70.80
44461;DHT22;30162;53.642;10.640;2023-05-10T13:22:43;21.70;70.90
44461;DHT22;30162;53.642;10.640;2023-05-10T13:25:09;21.00;73.50
44461;DHT22;30162;53.642;10.640;2023-05-10T13:27:35;21.10;73.80
44461;DHT22;30162;53.642;10.640;2023-05-10T13:30:02;21.20;74.20
44461;DHT22;30162;53.642;10.640;2023-05-10T13:32:28;21.20;74.50
44461;DHT22;30162;53.642;10.640;2023-05-10T13:34:54;21.30;74.30
44461;DHT22;30162;53.642;10.640;2023-05-10T13:37:20;21.40;74.70
44461;DHT22;30162;53.642;10.640;2023-05-10T13:39:46;20.90;74.50
44461;DHT22;30162;53.642;10.640;2023-05-10T13:42:12;20.90;76.30
44461;DHT22;30162;53.642;10.640;2023-05-10T13:44:37;21.20;75.70
44461;DHT22;30162;53.642;10.640;2023-05-10T13:47:04;21.40;74.50
44461;DHT22;30162;53.642;10.640;2023-05-10T13:49:30;21.60;74.60
44461;DHT22;30162;53.642;10.640;2023-05-10T13:51:55;21.80;74.30
44461;DHT22;30162;53.642;10.640;2023-05-10T13:54:21;21.80;74.50
44461;DHT22;30162;53.642;10.640;2023-05-10T13:56:47;21.70;73.70
44461;DHT22;30162;53.642;10.640;2023-05-10T13:59:13;21.60;74.20
44461;DHT22;30162;53.642;10.640;2023-05-10T14:01:42;21.50;74.10
44461;DHT22;30162;53.642;10.640;2023-05-10T14:04:11;21.40;74.30
44461;DHT22;30162;53.642;10.640;2023-05-10T14:06:36;21.00;75.60
44461;DHT22;30162;53.642;10.640;2023-05-10T14:09:03;21.20;75.90
44461;DHT22;30162;53.642;10.640;2023-05-10T14:11:28;21.30;75.20
44461;DHT22;30162;53.642;10.640;2023-05-10T14:13:54;21.50;75.70
44461;DHT22;30162;53.642;10.640;2023-05-10T14:16:20;21.80;76.10
44461;DHT22;30162;53.642;10.640;2023-05-10T14:18:46;22.00;75.90
44461;DHT22;30162;53.642;10.640;2023-05-10T14:21:12;21.90;76.10
44461;DHT22;30162;53.642;10.640;2023-05-10T14:23:38;22.00;76.70
44461;DHT22;30162;53.642;10.640;2023-05-10T14:26:03;22.10;76.20
44461;DHT22;30162;53.642;10.640;2023-05-10T14:28:29;22.00;75.00
44461;DHT22;30162;53.642;10.640;2023-05-10T14:30:54;22.10;75.70
44461;DHT22;30162;53.642;10.640;2023-05-10T14:33:20;22.30;75.10
44461;DHT22;30162;53.642;10.640;2023-05-10T14:35:46;22.50;74.20
44461;DHT22;30162;53.642;10.640;2023-05-10T14:38:13;22.40;73.80
44461;DHT22;30162;53.642;10.640;2023-05-10T14:40:38;22.60;74.40
44461;DHT22;30162;53.642;10.640;2023-05-10T14:43:04;22.60;74.10
44461;DHT22;30162;53.642;10.640;2023-05-10T14:45:29;22.60;73.50
44461;DHT22;30162;53.642;10.640;2023-05-10T14:47:55;21.60;74.40
44461;DHT22;30162;53.642;10.640;2023-05-10T14:50:20;21.60;76.00
44461;DHT22;30162;53.642;10.640;2023-05-10T14:52:46;22.00;75.80
44461;DHT22;30162;53.642;10.640;2023-05-10T14:55:11;22.30;75.50
44461;DHT22;30162;53.642;10.640;2023-05-10T14:57:37;22.50;75.90
44461;DHT22;30162;53.642;10.640;2023-05-10T15:00:03;22.60;73.50
44461;DHT22;30162;53.642;10.640;2023-05-10T15:02:30;22.60;74.90
44461;DHT22;30162;53.642;10.640;2023-05-10T15:04:56;22.70;73.50
44461;DHT22;30162;53.642;10.640;2023-05-10T15:07:23;22.50;74.50
44461;DHT22;30162;53.642;10.640;2023-05-10T15:09:48;22.60;75.20
44461;DHT22;30162;53.642;10.640;2023-05-10T15:12:14;22.40;74.80
44461;DHT22;30162;53.642;10.640;2023-05-10T15:14:40;22.60;74.80
44461;DHT22;30162;53.642;10.640;2023-05-10T15:17:06;22.70;74.20
44461;DHT22;30162;53.642;10.640;2023-05-10T15:19:32;22.60;74.70
44461;DHT22;30162;53.642;10.640;2023-05-10T15:21:58;22.20;74.20
44461;DHT22;30162;53.642;10.640;2023-05-10T15:24:24;22.10;75.10
44461;DHT22;30162;53.642;10.640;2023-05-10T15:26:50;22.40;75.20
44461;DHT22;30162;53.642;10.640;2023-05-10T15:29:15;22.50;74.20
44461;DHT22;30162;53.642;10.640;2023-05-10T15:31:46;22.50;74.30
44461;DHT22;30162;53.642;10.640;2023-05-10T15:34:11;22.70;73.40
44461;DHT22;30162;53.642;10.640;2023-05-10T15:36:37;22.70;73.30